createdAt,value
2018-06-20T00:00:01.320Z,16.3
2018-06-20T00:00:51.404Z,16.3
2018-06-20T00:01:41.465Z,16.3
2018-06-20T00:02:31.545Z,16.3
2018-06-20T00:03:21.584Z,16.2
2018-06-20T00:04:11.089Z,16.2
2018-06-20T00:05:01.204Z,16.3
2018-06-20T00:05:51.503Z,16.3
2018-06-20T00:06:41.873Z,16.3
2018-06-20T00:07:31.667Z,16.2
2018-06-20T00:08:21.413Z,16.2
2018-06-20T00:09:11.772Z,16.2
2018-06-20T00:10:01.812Z,16.2
2018-06-20T00:10:52.172Z,16.1
2018-06-20T00:11:42.232Z,16.1
2018-06-20T00:12:32.020Z,16.1
2018-06-20T00:13:22.361Z,16.1
2018-06-20T00:14:11.860Z,16.1
2018-06-20T00:15:02.283Z,16.1
2018-06-20T00:15:52.543Z,16.1
2018-06-20T00:16:42.357Z,16.1
2018-06-20T00:17:32.448Z,16.2
2018-06-20T00:18:22.461Z,16.2
2018-06-20T00:19:12.248Z,16.2
2018-06-20T00:20:02.611Z,16.3
2018-06-20T00:20:52.922Z,16.2
2018-06-20T00:21:42.504Z,16.2
2018-06-20T00:22:32.767Z,16.1
2018-06-20T00:23:22.845Z,16.1
2018-06-20T00:24:12.912Z,16.1
2018-06-20T00:25:03.327Z,16
2018-06-20T00:25:53.324Z,15.9
2018-06-20T00:26:43.369Z,15.9
2018-06-20T00:27:33.450Z,15.9
2018-06-20T00:28:22.396Z,15.8
2018-06-20T00:29:13.595Z,15.8
2018-06-20T00:30:03.637Z,15.8
2018-06-20T00:30:53.442Z,15.8
2018-06-20T00:31:43.479Z,15.7
2018-06-20T00:32:32.784Z,15.8
2018-06-20T00:33:23.894Z,15.7
2018-06-20T00:34:13.693Z,15.7
2018-06-20T00:35:03.749Z,15.6
2018-06-20T00:35:54.117Z,15.6
2018-06-20T00:36:44.153Z,15.6
2018-06-20T00:37:34.249Z,15.6
2018-06-20T00:38:23.992Z,15.6
2018-06-20T00:39:14.356Z,15.6
2018-06-20T00:40:04.462Z,15.5
2018-06-20T00:40:54.434Z,15.5
2018-06-20T00:41:44.510Z,15.5
2018-06-20T00:42:34.310Z,15.5
2018-06-20T00:43:24.648Z,15.5
2018-06-20T00:44:14.471Z,15.4
2018-06-20T00:45:04.811Z,15.4
2018-06-20T00:45:54.568Z,15.4
2018-06-20T00:46:44.618Z,15.4
2018-06-20T00:47:34.958Z,15.4
2018-06-20T00:48:24.783Z,15.3
2018-06-20T00:49:15.088Z,15.3
2018-06-20T00:50:04.897Z,15.3
2018-06-20T00:50:55.230Z,15.3
2018-06-20T00:51:45.352Z,15.3
2018-06-20T00:52:35.361Z,15.3
2018-06-20T00:53:25.411Z,15.3
2018-06-20T00:54:14.915Z,15.3
2018-06-20T00:55:04.995Z,15.3
2018-06-20T00:55:55.610Z,15.3
2018-06-20T00:56:45.392Z,15.3
2018-06-20T00:57:35.185Z,15.3
2018-06-20T00:58:25.780Z,15.2
2018-06-20T00:59:15.573Z,15.2
2018-06-20T01:00:05.647Z,15.1
2018-06-20T01:00:55.994Z,15.1
2018-06-20T01:01:45.832Z,15.1
2018-06-20T01:02:35.823Z,15.1
2018-06-20T01:03:26.191Z,15.1
2018-06-20T01:04:16.247Z,14.9
2018-06-20T01:05:06.018Z,15
2018-06-20T01:05:56.356Z,14.9
2018-06-20T01:06:46.441Z,14.9
2018-06-20T01:07:36.570Z,14.9
2018-06-20T01:08:26.270Z,14.9
2018-06-20T01:09:16.610Z,14.9
2018-06-20T01:10:06.398Z,14.9
2018-06-20T01:10:56.481Z,14.9
2018-06-20T01:11:47.918Z,14.9
2018-06-20T01:12:36.865Z,15
2018-06-20T01:13:26.662Z,15.1
2018-06-20T01:14:17.009Z,15.2
2018-06-20T01:15:06.797Z,15.3
2018-06-20T01:15:57.113Z,15.3
2018-06-20T01:16:46.651Z,15.3
2018-06-20T01:17:37.235Z,15.3
2018-06-20T01:18:41.969Z,15.3
2018-06-20T01:19:17.384Z,15.3
2018-06-20T01:20:07.169Z,15.3
2018-06-20T01:20:57.489Z,15.3
2018-06-20T01:21:47.557Z,15.4
2018-06-20T01:22:37.670Z,15.4
2018-06-20T01:23:27.683Z,15.4
2018-06-20T01:24:17.755Z,15.5
2018-06-20T01:25:07.837Z,15.5
2018-06-20T01:25:57.891Z,15.5
2018-06-20T01:26:47.976Z,15.5
2018-06-20T01:27:37.193Z,15.5
2018-06-20T01:28:27.513Z,15.5
2018-06-20T01:29:17.582Z,15.5
2018-06-20T01:30:08.220Z,15.5
2018-06-20T01:30:57.728Z,15.5
2018-06-20T01:31:48.341Z,15.6
2018-06-20T01:32:38.418Z,15.6
2018-06-20T01:33:28.182Z,15.6
2018-06-20T01:34:18.560Z,15.6
2018-06-20T01:35:08.335Z,15.6
2018-06-20T01:35:58.654Z,15.6
2018-06-20T01:36:48.770Z,15.5
2018-06-20T01:37:38.508Z,15.5
2018-06-20T01:38:28.578Z,15.4
2018-06-20T01:39:18.895Z,15.4
2018-06-20T01:40:08.698Z,15.4
2018-06-20T01:40:59.052Z,15.4
2018-06-20T01:41:49.121Z,15.4
2018-06-20T01:42:39.230Z,15.4
2018-06-20T01:43:29.235Z,15.4
2018-06-20T01:44:19.301Z,15.3
2018-06-20T01:45:09.345Z,15.3
2018-06-20T01:45:59.431Z,15.3
2018-06-20T01:46:49.231Z,15.3
2018-06-20T01:47:39.536Z,15.3
2018-06-20T01:48:29.384Z,15.3
2018-06-20T01:49:19.685Z,15.3
2018-06-20T01:50:09.479Z,15.3
2018-06-20T01:50:59.535Z,15.3
2018-06-20T01:51:49.583Z,15.3
2018-06-20T01:52:39.395Z,15.4
2018-06-20T01:53:29.720Z,15.3
2018-06-20T01:54:19.767Z,15.3
2018-06-20T01:55:09.275Z,15.3
2018-06-20T01:56:00.280Z,15.3
2018-06-20T01:56:49.976Z,15.3
2018-06-20T01:57:39.755Z,15.3
2018-06-20T01:58:30.366Z,15.3
2018-06-20T01:59:19.312Z,15.3
2018-06-20T02:00:10.228Z,15.2
2018-06-20T02:01:00.567Z,15.2
2018-06-20T02:01:50.616Z,15.2
2018-06-20T02:02:40.150Z,15.1
2018-06-20T02:03:30.769Z,15.1
2018-06-20T02:04:20.554Z,15.1
2018-06-20T02:05:10.595Z,15.1
2018-06-20T02:06:00.419Z,15.1
2018-06-20T02:06:51.040Z,15
2018-06-20T02:07:41.064Z,15
2018-06-20T02:08:31.158Z,15
2018-06-20T02:09:21.233Z,14.9
2018-06-20T02:10:11.351Z,14.9
2018-06-20T02:11:01.331Z,14.9
2018-06-20T02:11:51.144Z,14.9
2018-06-20T02:12:41.202Z,14.9
2018-06-20T02:13:31.231Z,14.9
2018-06-20T02:14:21.004Z,14.9
2018-06-20T02:15:11.363Z,14.9
2018-06-20T02:16:01.699Z,14.9
2018-06-20T02:16:51.489Z,14.9
2018-06-20T02:17:41.844Z,14.9
2018-06-20T02:18:31.914Z,14.8
2018-06-20T02:19:21.969Z,14.8
2018-06-20T02:20:12.051Z,14.8
2018-06-20T02:21:02.101Z,14.7
2018-06-20T02:21:51.904Z,14.7
2018-06-20T02:22:41.957Z,14.6
2018-06-20T02:23:32.294Z,14.6
2018-06-20T02:24:22.081Z,14.5
2018-06-20T02:25:12.399Z,14.5
2018-06-20T02:26:01.918Z,14.5
2018-06-20T02:26:52.536Z,14.5
2018-06-20T02:27:42.608Z,14.5
2018-06-20T02:28:32.646Z,14.6
2018-06-20T02:29:22.711Z,14.4
2018-06-20T02:30:12.249Z,14.4
2018-06-20T02:31:02.632Z,14.4
2018-06-20T02:31:52.652Z,14.4
2018-06-20T02:32:42.708Z,14.4
2018-06-20T02:33:32.779Z,14.4
2018-06-20T02:34:22.832Z,14.4
2018-06-20T02:35:12.651Z,14.4
2018-06-20T02:36:02.960Z,14.4
2018-06-20T02:36:53.038Z,14.3
2018-06-20T02:37:42.805Z,14.3
2018-06-20T02:38:33.425Z,14.3
2018-06-20T02:39:23.236Z,14.3
2018-06-20T02:40:13.294Z,14.4
2018-06-20T02:41:03.348Z,14.3
2018-06-20T02:41:53.447Z,14.3
2018-06-20T02:42:43.772Z,14.3
2018-06-20T02:43:33.542Z,14.3
2018-06-20T02:44:23.598Z,14.3
2018-06-20T02:45:13.973Z,14.3
2018-06-20T02:46:04.027Z,14.3
2018-06-20T02:46:54.099Z,14.3
2018-06-20T02:47:44.195Z,14.3
2018-06-20T02:48:33.929Z,14.2
2018-06-20T02:49:24.246Z,14.2
2018-06-20T02:50:14.044Z,14.1
2018-06-20T02:51:04.407Z,14.2
2018-06-20T02:51:54.445Z,14.3
2018-06-20T02:52:44.872Z,14.3
2018-06-20T02:53:34.607Z,14.4
2018-06-20T02:54:24.612Z,14.4
2018-06-20T02:55:14.733Z,14.3
2018-06-20T02:56:04.491Z,14.3
2018-06-20T02:56:54.528Z,14.3
2018-06-20T02:57:44.620Z,14.3
2018-06-20T02:58:34.649Z,14.3
2018-06-20T02:59:24.727Z,14.3
2018-06-20T03:00:14.819Z,14.3
2018-06-20T03:01:05.191Z,14.3
2018-06-20T03:01:55.204Z,14.3
2018-06-20T03:02:45.251Z,14.3
2018-06-20T03:03:35.340Z,14.4
2018-06-20T03:04:25.110Z,14.3
2018-06-20T03:05:14.922Z,14.4
2018-06-20T03:06:05.278Z,14.4
2018-06-20T03:06:55.598Z,14.4
2018-06-20T03:07:45.656Z,14.4
2018-06-20T03:08:35.154Z,14.4
2018-06-20T03:09:25.274Z,14.4
2018-06-20T03:10:15.837Z,14.4
2018-06-20T03:11:05.913Z,14.5
2018-06-20T03:11:55.123Z,14.4
2018-06-20T03:12:46.080Z,14.4
2018-06-20T03:13:36.078Z,14.5
2018-06-20T03:14:26.142Z,14.5
2018-06-20T03:15:16.234Z,14.5
2018-06-20T03:16:06.031Z,14.6
2018-06-20T03:16:55.797Z,14.6
2018-06-20T03:17:46.141Z,14.5
2018-06-20T03:18:35.917Z,14.5
2018-06-20T03:19:26.550Z,14.5
2018-06-20T03:20:16.575Z,14.6
2018-06-20T03:21:06.703Z,14.6
2018-06-20T03:21:56.467Z,14.6
2018-06-20T03:22:46.782Z,14.6
2018-06-20T03:23:36.870Z,14.6
2018-06-20T03:24:26.917Z,14.6
2018-06-20T03:25:16.823Z,14.7
2018-06-20T03:26:07.047Z,14.6
2018-06-20T03:26:57.088Z,14.6
2018-06-20T03:27:46.329Z,14.7
2018-06-20T03:28:37.242Z,14.8
2018-06-20T03:29:27.344Z,14.8
2018-06-20T03:30:16.247Z,14.8
2018-06-20T03:31:07.447Z,14.8
2018-06-20T03:31:56.924Z,14.8
2018-06-20T03:32:47.287Z,14.8
2018-06-20T03:33:37.599Z,14.9
2018-06-20T03:34:27.419Z,14.9
2018-06-20T03:35:17.525Z,14.9
2018-06-20T03:36:07.781Z,15
2018-06-20T03:36:57.895Z,15.1
2018-06-20T03:37:47.935Z,15.1
2018-06-20T03:38:37.997Z,15.1
2018-06-20T03:39:27.241Z,15.1
2018-06-20T03:40:17.827Z,15.1
2018-06-20T03:41:07.902Z,15.1
2018-06-20T03:41:57.956Z,15.1
2018-06-20T03:42:48.088Z,15.1
2018-06-20T03:43:38.391Z,15.1
2018-06-20T03:44:27.604Z,15.2
2018-06-20T03:45:17.941Z,15.2
2018-06-20T03:46:08.018Z,15.2
2018-06-20T03:46:58.076Z,15.1
2018-06-20T03:47:48.421Z,15.1
2018-06-20T03:48:38.203Z,15.1
2018-06-20T03:49:28.806Z,15.1
2018-06-20T03:50:18.585Z,15.1
2018-06-20T03:51:08.389Z,15
2018-06-20T03:51:59.030Z,14.9
2018-06-20T03:52:49.075Z,14.9
2018-06-20T03:53:38.577Z,14.9
2018-06-20T03:54:28.946Z,14.9
2018-06-20T03:55:19.245Z,15
2018-06-20T03:56:09.350Z,15.1
2018-06-20T03:56:59.121Z,15.1
2018-06-20T03:57:49.464Z,15.1
2018-06-20T03:58:39.522Z,15.1
2018-06-20T03:59:29.281Z,15.2
2018-06-20T04:00:19.075Z,15.2
2018-06-20T04:01:09.397Z,15.3
2018-06-20T04:01:59.500Z,15.3
2018-06-20T04:02:49.563Z,15.4
2018-06-20T04:03:39.915Z,15.4
2018-06-20T04:04:29.958Z,15.4
2018-06-20T04:05:19.752Z,15.5
2018-06-20T04:06:10.160Z,15.5
2018-06-20T04:06:59.852Z,15.6
2018-06-20T04:07:49.944Z,15.6
2018-06-20T04:08:39.492Z,15.6
2018-06-20T04:09:30.357Z,15.7
2018-06-20T04:10:20.161Z,15.7
2018-06-20T04:11:10.479Z,15.8
2018-06-20T04:12:00.515Z,15.8
2018-06-20T04:12:51.534Z,15.8
2018-06-20T04:13:40.655Z,15.8
2018-06-20T04:14:29.892Z,15.9
2018-06-20T04:15:20.515Z,15.9
2018-06-20T04:16:09.999Z,15.9
2018-06-20T04:17:00.649Z,15.9
2018-06-20T04:17:50.394Z,16
2018-06-20T04:18:40.792Z,16.1
2018-06-20T04:19:30.799Z,16.1
2018-06-20T04:20:21.166Z,16.2
2018-06-20T04:21:11.229Z,16.3
2018-06-20T04:22:01.291Z,16.3
2018-06-20T04:22:51.405Z,16.3
2018-06-20T04:23:41.416Z,16.3
2018-06-20T04:24:31.208Z,16.3
2018-06-20T04:25:20.987Z,16.4
2018-06-20T04:26:11.677Z,16.4
2018-06-20T04:27:01.672Z,16.4
2018-06-20T04:27:51.737Z,16.5
2018-06-20T04:28:41.784Z,16.5
2018-06-20T04:29:31.844Z,16.6
2018-06-20T04:30:21.654Z,16.6
2018-06-20T04:31:12.011Z,16.8
2018-06-20T04:32:02.058Z,16.8
2018-06-20T04:32:52.106Z,16.9
2018-06-20T04:33:42.185Z,16.9
2018-06-20T04:34:32.457Z,16.9
2018-06-20T04:36:12.101Z,17.1
2018-06-20T04:37:02.135Z,17.1
2018-06-20T04:37:52.479Z,17.1
2018-06-20T04:38:42.291Z,17.1
2018-06-20T04:39:32.625Z,17.1
2018-06-20T04:40:22.661Z,17.3
2018-06-20T04:41:12.726Z,17.4
2018-06-20T04:42:02.247Z,17.5
2018-06-20T04:42:52.602Z,17.6
2018-06-20T04:43:42.917Z,17.6
2018-06-20T04:44:32.536Z,17.6
2018-06-20T04:45:23.093Z,17.7
2018-06-20T04:46:12.859Z,17.7
2018-06-20T04:47:02.647Z,17.8
2018-06-20T04:47:52.968Z,17.8
2018-06-20T04:48:43.331Z,17.9
2018-06-20T04:49:32.829Z,17.9
2018-06-20T04:50:22.930Z,18
2018-06-20T04:51:13.254Z,18
2018-06-20T04:52:03.332Z,17.9
2018-06-20T04:52:52.534Z,17.9
2018-06-20T04:53:43.142Z,18
2018-06-20T04:54:33.792Z,18.1
2018-06-20T04:55:23.814Z,18.1
2018-06-20T04:56:13.637Z,18.2
2018-06-20T04:57:03.962Z,18.2
2018-06-20T04:57:53.757Z,18.2
2018-06-20T04:58:43.338Z,18.3
2018-06-20T04:59:34.148Z,18.4
2018-06-20T05:00:24.244Z,18.5
2018-06-20T05:01:14.281Z,18.4
2018-06-20T05:02:04.052Z,18.4
2018-06-20T05:02:54.114Z,18.3
2018-06-20T05:03:44.006Z,18.4
2018-06-20T05:04:34.597Z,18.5
2018-06-20T05:06:13.856Z,18.9
2018-06-20T05:07:04.269Z,18.9
2018-06-20T05:07:54.528Z,19.1
2018-06-20T05:08:44.883Z,19.1
2018-06-20T05:09:34.639Z,19.1
2018-06-20T05:10:24.706Z,19.1
2018-06-20T05:11:15.047Z,19.3
2018-06-20T05:12:05.135Z,19.2
2018-06-20T05:12:54.616Z,19.1
2018-06-20T05:13:45.252Z,19.1
2018-06-20T05:14:35.052Z,18.9
2018-06-20T05:15:25.076Z,18.9
2018-06-20T05:16:15.123Z,18.9
2018-06-20T05:17:05.221Z,19.1
2018-06-20T05:17:55.563Z,19.3
2018-06-20T05:18:45.627Z,19.3
2018-06-20T05:19:35.669Z,19.4
2018-06-20T05:20:25.178Z,19.5
2018-06-20T05:21:15.812Z,19.7
2018-06-20T05:22:05.310Z,19.7
2018-06-20T05:22:55.374Z,19.6
2018-06-20T05:23:45.732Z,19.6
2018-06-20T05:24:35.795Z,19.6
2018-06-20T05:25:25.852Z,19.5
2018-06-20T05:26:16.235Z,19.6
2018-06-20T05:27:06.023Z,19.8
2018-06-20T05:27:56.044Z,19.9
2018-06-20T05:28:46.382Z,19.9
2018-06-20T05:29:36.156Z,19.9
2018-06-20T05:30:26.512Z,19.9
2018-06-20T05:31:16.059Z,20
2018-06-20T05:32:06.638Z,20.2
2018-06-20T05:32:57.291Z,20.3
2018-06-20T05:33:46.759Z,20.4
2018-06-20T05:34:36.807Z,20.3
2018-06-20T05:35:26.885Z,20.4
2018-06-20T05:36:16.954Z,20.4
2018-06-20T05:37:06.727Z,20.4
2018-06-20T05:37:56.785Z,20.4
2018-06-20T05:38:47.151Z,20.6
2018-06-20T05:39:37.237Z,20.7
2018-06-20T05:40:27.278Z,20.8
2018-06-20T05:41:17.053Z,20.9
2018-06-20T05:42:07.406Z,20.9
2018-06-20T05:42:57.483Z,20.8
2018-06-20T05:43:47.232Z,20.8
2018-06-20T05:44:37.607Z,20.9
2018-06-20T05:45:27.099Z,21.1
2018-06-20T05:46:16.868Z,21.2
2018-06-20T05:47:57.299Z,21
2018-06-20T05:48:47.633Z,20.9
2018-06-20T05:49:37.405Z,20.8
2018-06-20T05:50:28.048Z,20.7
2018-06-20T05:51:18.133Z,20.7
2018-06-20T05:52:08.179Z,20.7
2018-06-20T05:52:57.938Z,20.7
2018-06-20T05:53:48.243Z,20.5
2018-06-20T05:54:38.349Z,20.5
2018-06-20T05:55:28.419Z,20.6
2018-06-20T05:56:18.493Z,20.6
2018-06-20T05:57:08.575Z,20.6
2018-06-20T05:57:58.628Z,20.6
2018-06-20T05:58:48.505Z,20.6
2018-06-20T05:59:38.175Z,20.4
2018-06-20T06:00:28.787Z,20.4
2018-06-20T06:01:18.587Z,20.5
2018-06-20T06:02:08.380Z,20.7
2018-06-20T06:02:58.991Z,20.8
2018-06-20T06:03:48.778Z,20.9
2018-06-20T06:04:39.133Z,21
2018-06-20T06:05:29.222Z,21.1
2018-06-20T06:06:18.985Z,21
2018-06-20T06:07:09.315Z,21
2018-06-20T06:07:58.820Z,20.9
2018-06-20T06:08:48.876Z,20.8
2018-06-20T06:09:38.963Z,20.9
2018-06-20T06:11:18.665Z,21.2
2018-06-20T06:12:08.948Z,21.3
2018-06-20T06:12:59.040Z,21.3
2018-06-20T06:13:49.036Z,21.3
2018-06-20T06:14:39.174Z,21.5
2018-06-20T06:15:28.629Z,21.5
2018-06-20T06:16:18.982Z,21.2
2018-06-20T06:17:09.767Z,21.3
2018-06-20T06:17:59.107Z,21.3
2018-06-20T06:18:49.433Z,21.3
2018-06-20T06:19:39.501Z,21.4
2018-06-20T06:20:29.546Z,21.4
2018-06-20T06:21:19.621Z,21.4
2018-06-20T06:22:09.667Z,21.5
2018-06-20T06:22:59.464Z,21.6
2018-06-20T06:23:49.544Z,21.5
2018-06-20T06:24:39.898Z,21.4
2018-06-20T06:25:30.011Z,21.4
2018-06-20T06:26:20.008Z,21.2
2018-06-20T06:27:10.069Z,21.4
2018-06-20T06:27:59.859Z,21.6
2018-06-20T06:28:50.199Z,21.8
2018-06-20T06:29:40.242Z,21.7
2018-06-20T06:30:30.201Z,21.9
2018-06-20T06:31:20.114Z,22
2018-06-20T06:32:10.168Z,21.8
2018-06-20T06:33:00.548Z,21.4
2018-06-20T06:33:50.306Z,21.4
2018-06-20T06:34:40.639Z,21.2
2018-06-20T06:35:30.438Z,21.3
2018-06-20T06:37:10.825Z,21.4
2018-06-20T06:38:00.646Z,21.4
2018-06-20T06:38:50.968Z,21.3
2018-06-20T06:39:41.046Z,21.3
2018-06-20T06:40:31.094Z,21.5
2018-06-20T06:41:21.170Z,21.9
2018-06-20T06:42:10.984Z,22.2
2018-06-20T06:43:01.275Z,22.4
2018-06-20T06:43:50.811Z,22.6
2018-06-20T06:44:41.435Z,22.9
2018-06-20T06:45:31.457Z,22.8
2018-06-20T06:46:21.580Z,22.8
2018-06-20T06:47:11.332Z,22.9
2018-06-20T06:48:01.437Z,22.6
2018-06-20T06:48:51.753Z,22.6
2018-06-20T06:49:42.350Z,22.5
2018-06-20T06:50:31.561Z,22.4
2018-06-20T06:51:21.645Z,22.3
2018-06-20T06:52:11.999Z,22.6
2018-06-20T06:53:02.035Z,23
2018-06-20T06:53:52.120Z,22.9
2018-06-20T06:54:41.637Z,23.1
2018-06-20T06:55:32.230Z,23.2
2018-06-20T06:56:22.044Z,23.3
2018-06-20T06:57:12.354Z,23.7
2018-06-20T06:58:02.483Z,23.4
2018-06-20T06:58:52.510Z,23.2
2018-06-20T06:59:42.021Z,23.3
2018-06-20T07:00:32.647Z,23.2
2018-06-20T07:01:22.704Z,23.3
2018-06-20T07:02:12.761Z,23.4
2018-06-20T07:03:02.575Z,23.6
2018-06-20T07:03:52.937Z,23.9
2018-06-20T07:04:42.688Z,23.9
2018-06-20T07:05:32.788Z,24.1
2018-06-20T07:06:22.802Z,24.6
2018-06-20T07:07:13.156Z,24.5
2018-06-20T07:08:02.923Z,24.4
2018-06-20T07:08:52.434Z,24.6
2018-06-20T07:09:43.064Z,24.4
2018-06-20T07:10:33.179Z,24.5
2018-06-20T07:11:23.213Z,24.8
2018-06-20T07:12:13.269Z,24.2
2018-06-20T07:13:03.579Z,24.1
2018-06-20T07:13:53.097Z,24.4
2018-06-20T07:14:43.451Z,24.2
2018-06-20T07:15:34.440Z,23.7
2018-06-20T07:16:23.879Z,22.9
2018-06-20T07:17:13.379Z,23
2018-06-20T07:18:03.715Z,23.4
2018-06-20T07:18:54.021Z,23.8
2018-06-20T07:19:43.876Z,24.1
2018-06-20T07:20:33.700Z,24.3
2018-06-20T07:21:24.230Z,24.5
2018-06-20T07:22:14.328Z,24.3
2018-06-20T07:23:04.095Z,24.3
2018-06-20T07:23:54.175Z,24.3
2018-06-20T07:24:44.217Z,24.9
2018-06-20T07:25:34.636Z,25.1
2018-06-20T07:26:24.333Z,25.4
2018-06-20T07:27:14.722Z,25.5
2018-06-20T07:28:04.462Z,25.4
2018-06-20T07:28:54.578Z,25.6
2018-06-20T07:29:44.957Z,25.7
2018-06-20T07:30:34.380Z,25.9
2018-06-20T07:31:24.723Z,26
2018-06-20T07:32:15.088Z,26.1
2018-06-20T07:33:05.169Z,25.8
2018-06-20T07:33:54.925Z,26
2018-06-20T07:34:44.736Z,26.1
2018-06-20T07:35:36.370Z,25.8
2018-06-20T07:36:25.631Z,25.6
2018-06-20T07:37:14.987Z,25.6
2018-06-20T07:38:05.534Z,25.7
2018-06-20T07:38:55.589Z,26.2
2018-06-20T07:39:45.190Z,26.6
2018-06-20T07:40:35.212Z,26.7
2018-06-20T07:41:25.486Z,26.9
2018-06-20T07:42:15.836Z,26.7
2018-06-20T07:43:05.918Z,26.1
2018-06-20T07:43:55.703Z,25.6
2018-06-20T07:44:45.773Z,25.8
2018-06-20T07:45:35.820Z,25.7
2018-06-20T07:46:26.147Z,25.8
2018-06-20T07:47:16.238Z,25.9
2018-06-20T07:48:05.743Z,26.2
2018-06-20T07:48:56.353Z,26.8
2018-06-20T07:49:46.400Z,27.1
2018-06-20T07:50:36.020Z,27.6
2018-06-20T07:51:25.969Z,27.8
2018-06-20T07:53:06.121Z,27.4
2018-06-20T07:53:56.778Z,27.5
2018-06-20T07:54:46.522Z,27.6
2018-06-20T07:55:36.903Z,27.5
2018-06-20T07:56:26.660Z,27.3
2018-06-20T07:57:17.029Z,27.4
2018-06-20T07:58:07.066Z,27.7
2018-06-20T07:58:56.555Z,27.1
2018-06-20T07:59:47.172Z,27.2
2018-06-20T08:00:37.181Z,27
2018-06-20T08:01:26.789Z,27.4
2018-06-20T08:02:17.383Z,27.2
2018-06-20T08:03:07.471Z,27.3
2018-06-20T08:03:57.499Z,26.7
2018-06-20T08:04:47.625Z,26.6
2018-06-20T08:05:37.641Z,26.4
2018-06-20T08:06:28.256Z,26.7
2018-06-20T08:07:17.488Z,26.4
2018-06-20T08:08:07.845Z,26.9
2018-06-20T08:08:57.900Z,27.5
2018-06-20T08:09:47.998Z,28
2018-06-20T08:10:37.470Z,28.3
2018-06-20T08:11:27.347Z,28.5
2018-06-20T08:12:17.932Z,28.7
2018-06-20T08:13:08.221Z,28.6
2018-06-20T08:13:58.012Z,28.6
2018-06-20T08:14:47.404Z,28.4
2018-06-20T08:15:38.420Z,28.3
2018-06-20T08:16:28.484Z,28.4
2018-06-20T08:17:18.349Z,28.3
2018-06-20T08:18:08.038Z,28.1
2018-06-20T08:18:58.281Z,28.1
2018-06-20T08:19:48.461Z,28.4
2018-06-20T08:20:38.300Z,28.4
2018-06-20T08:21:28.621Z,28.4
2018-06-20T08:22:18.968Z,28.6
2018-06-20T08:23:08.986Z,28.7
2018-06-20T08:23:59.077Z,29
2018-06-20T08:24:48.565Z,29.1
2018-06-20T08:25:39.359Z,29.3
2018-06-20T08:26:29.237Z,29.4
2018-06-20T08:27:19.031Z,29.3
2018-06-20T08:28:08.554Z,29.6
2018-06-20T08:28:59.455Z,29.2
2018-06-20T08:29:49.512Z,29.1
2018-06-20T08:30:39.335Z,28.7
2018-06-20T08:31:29.092Z,28
2018-06-20T08:32:19.721Z,27.3
2018-06-20T08:33:09.480Z,27.5
2018-06-20T08:33:59.883Z,28.3
2018-06-20T08:34:49.658Z,28.6
2018-06-20T08:35:39.958Z,29.2
2018-06-20T08:36:29.760Z,29.2
2018-06-20T08:37:19.530Z,29.3
2018-06-20T08:38:09.882Z,28.7
2018-06-20T08:39:00.208Z,27.9
2018-06-20T08:39:50.282Z,27.5
2018-06-20T08:40:40.071Z,27.9
2018-06-20T08:41:30.430Z,28.4
2018-06-20T08:42:20.798Z,28.4
2018-06-20T08:43:10.561Z,28.5
2018-06-20T08:44:00.323Z,28.7
2018-06-20T08:44:50.383Z,29.1
2018-06-20T08:45:40.722Z,29.1
2018-06-20T08:46:30.805Z,29.2
2018-06-20T08:47:20.869Z,28.7
2018-06-20T08:48:10.664Z,28.9
2018-06-20T08:49:01.003Z,29.6
2018-06-20T08:49:51.084Z,30.1
2018-06-20T08:50:41.120Z,29.8
2018-06-20T08:51:31.202Z,29.8
2018-06-20T08:52:21.268Z,29.9
2018-06-20T08:53:11.210Z,30.1
2018-06-20T08:54:01.091Z,30.1
2018-06-20T08:54:51.447Z,30.3
2018-06-20T08:55:41.529Z,29.9
2018-06-20T08:56:31.322Z,30
2018-06-20T08:57:21.679Z,30.3
2018-06-20T08:58:11.164Z,29.4
2018-06-20T08:59:01.204Z,29.5
2018-06-20T08:59:51.561Z,29.9
2018-06-20T09:00:41.881Z,30.5
2018-06-20T09:01:31.990Z,30.8
2018-06-20T09:02:22.043Z,30.8
2018-06-20T09:03:12.074Z,30.8
2018-06-20T09:04:02.143Z,30.4
2018-06-20T09:04:51.942Z,30.7
2018-06-20T09:05:42.004Z,30.6
2018-06-20T09:06:32.355Z,30.6
2018-06-20T09:07:22.143Z,30.7
2018-06-20T09:08:12.193Z,30.5
2018-06-20T09:09:02.601Z,30.3
2018-06-20T09:09:52.603Z,29.9
2018-06-20T09:10:42.378Z,29.9
2018-06-20T09:11:32.734Z,30
2018-06-20T09:12:22.514Z,30.1
2018-06-20T09:13:12.877Z,28.8
2018-06-20T09:14:02.661Z,28.1
2018-06-20T09:14:52.983Z,28.6
2018-06-20T09:15:42.795Z,29
2018-06-20T09:16:32.848Z,29.6
2018-06-20T09:17:22.944Z,30.2
2018-06-20T09:18:12.774Z,30.3
2018-06-20T09:19:03.077Z,30.2
2018-06-20T09:19:52.681Z,30.1
2018-06-20T09:20:43.457Z,29.6
2018-06-20T09:21:32.971Z,30.1
2018-06-20T09:22:23.048Z,30.1
2018-06-20T09:23:13.667Z,30.4
2018-06-20T09:24:02.954Z,29.9
2018-06-20T09:24:53.792Z,29.9
2018-06-20T09:25:43.539Z,30.4
2018-06-20T09:26:33.675Z,30.4
2018-06-20T09:27:23.215Z,30.4
2018-06-20T09:28:13.807Z,30.4
2018-06-20T09:29:03.854Z,30.8
2018-06-20T09:29:53.926Z,30.9
2018-06-20T09:30:43.948Z,31.1
2018-06-20T09:31:34.290Z,31.5
2018-06-20T09:32:23.873Z,31.1
2018-06-20T09:33:14.146Z,31.4
2018-06-20T09:34:04.492Z,31.6
2018-06-20T09:34:53.992Z,31.8
2018-06-20T09:35:44.363Z,32.2
2018-06-20T09:36:34.697Z,32.4
2018-06-20T09:37:24.766Z,32.1
2018-06-20T09:38:14.818Z,31.9
2018-06-20T09:39:04.596Z,31.9
2018-06-20T09:39:54.666Z,31.8
2018-06-20T09:40:44.752Z,31.6
2018-06-20T09:41:35.146Z,31.6
2018-06-20T09:42:25.160Z,31.6
2018-06-20T09:43:15.190Z,31.4
2018-06-20T09:44:05.275Z,31.5
2018-06-20T09:44:55.350Z,31.3
2018-06-20T09:45:45.127Z,31.5
2018-06-20T09:46:34.909Z,31.7
2018-06-20T09:47:25.317Z,31.8
2018-06-20T09:48:15.596Z,31.6
2018-06-20T09:49:05.657Z,31.9
2018-06-20T09:49:55.731Z,31.9
2018-06-20T09:50:45.516Z,31.6
2018-06-20T09:51:35.588Z,31
2018-06-20T09:52:25.910Z,30.8
2018-06-20T09:53:15.963Z,30.1
2018-06-20T09:54:06.035Z,29.5
2018-06-20T09:54:55.850Z,29.4
2018-06-20T09:55:46.171Z,29.1
2018-06-20T09:56:36.338Z,28.9
2018-06-20T09:57:26.025Z,29.1
2018-06-20T09:58:15.843Z,28.9
2018-06-20T09:59:05.981Z,29.3
2018-06-20T09:59:56.532Z,29.8
2018-06-20T10:00:46.606Z,30.1
2018-06-20T10:01:37.217Z,30.3
2018-06-20T10:02:26.735Z,30.3
2018-06-20T10:03:16.793Z,30.4
2018-06-20T10:04:06.281Z,30.6
2018-06-20T10:04:56.607Z,30.3
2018-06-20T10:05:46.990Z,30.6
2018-06-20T10:06:37.043Z,30.9
2018-06-20T10:07:26.833Z,30.8
2018-06-20T10:08:16.934Z,30.8
2018-06-20T10:09:07.240Z,30.5
2018-06-20T10:09:57.010Z,30.4
2018-06-20T10:10:46.215Z,30.8
2018-06-20T10:11:37.171Z,31.1
2018-06-20T10:12:27.190Z,31.1
2018-06-20T10:13:17.557Z,30.9
2018-06-20T10:14:07.629Z,30.8
2018-06-20T10:14:57.099Z,30.3
2018-06-20T10:15:47.493Z,30.4
2018-06-20T10:16:37.863Z,30.1
2018-06-20T10:17:27.889Z,30
2018-06-20T10:18:17.368Z,30.5
2018-06-20T10:19:08.013Z,30.4
2018-06-20T10:19:57.789Z,30.6
2018-06-20T10:20:47.857Z,30.5
2018-06-20T10:21:37.935Z,30.5
2018-06-20T10:22:27.971Z,30.6
2018-06-20T10:23:17.750Z,30.6
2018-06-20T10:24:08.381Z,30.4
2018-06-20T10:24:58.160Z,30.8
2018-06-20T10:25:47.958Z,31.3
2018-06-20T10:26:37.726Z,31.1
2018-06-20T10:27:28.114Z,31
2018-06-20T10:28:18.437Z,31.1
2018-06-20T10:29:08.852Z,30.9
2018-06-20T10:29:58.611Z,30.7
2018-06-20T10:30:48.359Z,30.6
2018-06-20T10:31:38.981Z,30.9
2018-06-20T10:32:29.047Z,31.2
2018-06-20T10:33:18.851Z,31
2018-06-20T10:34:09.463Z,30.5
2018-06-20T10:34:59.254Z,30.3
2018-06-20T10:35:49.293Z,30.2
2018-06-20T10:36:39.087Z,30.2
2018-06-20T10:37:29.165Z,30.4
2018-06-20T10:38:19.491Z,30.5
2018-06-20T10:39:09.270Z,30.6
2018-06-20T10:39:59.677Z,30.8
2018-06-20T10:40:49.385Z,30.5
2018-06-20T10:41:39.769Z,30.3
2018-06-20T10:42:29.530Z,30.6
2018-06-20T10:43:19.905Z,30.8
2018-06-20T10:44:09.390Z,30.9
2018-06-20T10:45:00.033Z,30.7
2018-06-20T10:45:49.795Z,30.6
2018-06-20T10:46:39.861Z,30.3
2018-06-20T10:47:30.195Z,29.9
2018-06-20T10:48:19.697Z,30.5
2018-06-20T10:49:10.085Z,30.9
2018-06-20T10:50:00.132Z,30.9
2018-06-20T10:50:49.878Z,31.1
2018-06-20T10:51:40.538Z,30.9
2018-06-20T10:52:30.285Z,30.5
2018-06-20T10:53:20.104Z,29.9
2018-06-20T10:54:10.703Z,30.2
2018-06-20T10:55:00.753Z,30.8
2018-06-20T10:55:50.862Z,30.8
2018-06-20T10:56:40.902Z,30.1
2018-06-20T10:57:30.987Z,29.8
2018-06-20T10:58:21.118Z,29.8
2018-06-20T10:59:10.851Z,29.9
2018-06-20T11:00:00.871Z,29.9
2018-06-20T11:00:51.225Z,30.3
2018-06-20T11:01:40.751Z,30.4
2018-06-20T11:02:31.063Z,30.4
2018-06-20T11:03:21.159Z,30.6
2018-06-20T11:04:11.478Z,30.4
2018-06-20T11:05:01.253Z,30.4
2018-06-20T11:05:51.338Z,30.7
2018-06-20T11:06:41.722Z,30.7
2018-06-20T11:07:31.167Z,30.2
2018-06-20T11:08:21.828Z,30.2
2018-06-20T11:09:11.887Z,30.9
2018-06-20T11:10:01.623Z,31.1
2018-06-20T11:10:51.698Z,31.1
2018-06-20T11:11:42.082Z,30.9
2018-06-20T11:12:32.107Z,30.8